createdAt,value
2019-01-17T00:02:27.054Z,96.97
2019-01-17T00:05:12.013Z,97.15
2019-01-17T00:08:00.132Z,97.28
2019-01-17T00:11:00.251Z,97.31
2019-01-17T00:13:39.371Z,97.30
2019-01-17T00:16:27.716Z,97.30
2019-01-17T00:19:14.563Z,97.54
2019-01-17T00:22:02.959Z,98.27
2019-01-17T00:25:06.502Z,97.50
2019-01-17T00:28:09.840Z,97.50
2019-01-17T00:30:48.470Z,96.79
2019-01-17T00:33:39.527Z,95.86
2019-01-17T00:36:26.972Z,95.86
2019-01-17T00:39:33.528Z,94.77
2019-01-17T00:42:20.728Z,94.77
2019-01-17T00:45:08.780Z,94.14
2019-01-17T00:48:02.937Z,92.99
2019-01-17T00:50:55.494Z,92.70
2019-01-17T00:53:38.481Z,91.43
2019-01-17T00:56:38.606Z,89.52
2019-01-17T00:59:21.389Z,87.90
2019-01-17T01:02:27.956Z,87.47
2019-01-17T01:05:16.072Z,86.52
2019-01-17T01:08:04.254Z,84.84
2019-01-17T01:10:51.232Z,84.25
2019-01-17T01:13:44.826Z,83.36
2019-01-17T01:16:32.355Z,83.68
2019-01-17T01:19:19.338Z,83.28
2019-01-17T01:22:07.431Z,83.37
2019-01-17T01:24:50.202Z,83.18
2019-01-17T01:27:50.606Z,83.02
2019-01-17T01:30:44.424Z,82.57
2019-01-17T01:33:38.708Z,82.26
2019-01-17T01:36:25.330Z,82.24
2019-01-17T01:39:11.928Z,82.48
2019-01-17T01:42:00.167Z,82.55
2019-01-17T01:44:46.748Z,81.92
2019-01-17T01:47:33.742Z,81.92
2019-01-17T01:50:11.650Z,81.97
2019-01-17T01:52:51.646Z,81.82
2019-01-17T01:55:20.734Z,81.92
2019-01-17T01:57:49.959Z,82.61
2019-01-17T02:00:19.206Z,82.55
2019-01-17T02:02:48.587Z,82.79
2019-01-17T02:05:17.943Z,82.38
2019-01-17T02:07:47.154Z,82.59
2019-01-17T02:10:16.900Z,82.80
2019-01-17T02:12:46.010Z,82.36
2019-01-17T02:15:15.293Z,82.15
2019-01-17T02:17:44.485Z,82.12
2019-01-17T02:20:14.204Z,82.23
2019-01-17T02:22:43.382Z,82.50
2019-01-17T02:25:12.677Z,82.27
2019-01-17T02:27:41.839Z,82.30
2019-01-17T02:30:13.013Z,82.75
2019-01-17T02:32:42.167Z,82.74
2019-01-17T02:35:11.343Z,82.35
2019-01-17T02:37:41.389Z,83.00
2019-01-17T02:40:12.544Z,83.14
2019-01-17T02:42:41.650Z,82.83
2019-01-17T02:45:13.096Z,82.41
2019-01-17T02:47:42.178Z,82.64
2019-01-17T02:50:12.087Z,82.19
2019-01-17T02:52:41.475Z,82.19
2019-01-17T02:55:11.546Z,82.28
2019-01-17T02:57:40.601Z,81.96
2019-01-17T03:00:13.644Z,81.45
2019-01-17T03:02:43.066Z,80.97
2019-01-17T03:05:12.535Z,81.38
2019-01-17T03:07:41.629Z,81.05
2019-01-17T03:10:14.166Z,81.04
2019-01-17T03:12:43.702Z,81.04
2019-01-17T03:15:13.191Z,80.97
2019-01-17T03:17:42.308Z,80.69
2019-01-17T03:20:13.069Z,80.55
2019-01-17T03:22:42.195Z,81.45
2019-01-17T03:25:12.163Z,81.31
2019-01-17T03:27:41.640Z,81.10
2019-01-17T03:30:17.022Z,80.96
2019-01-17T03:32:46.327Z,80.53
2019-01-17T03:35:16.022Z,80.25
2019-01-17T03:37:45.752Z,80.24
2019-01-17T03:40:16.978Z,80.31
2019-01-17T03:42:46.482Z,80.26
2019-01-17T03:45:16.393Z,80.21
2019-01-17T03:47:45.776Z,79.98
2019-01-17T03:50:15.975Z,80.63
2019-01-17T03:52:45.245Z,80.89
2019-01-17T03:55:19.421Z,80.61
2019-01-17T03:57:48.522Z,80.69
2019-01-17T04:00:19.672Z,81.01
2019-01-17T04:02:49.139Z,81.12
2019-01-17T04:05:18.266Z,80.94
2019-01-17T04:07:47.377Z,80.99
2019-01-17T04:10:17.566Z,80.83
2019-01-17T04:12:46.795Z,81.25
2019-01-17T04:15:16.082Z,81.42
2019-01-17T04:17:45.280Z,81.30
2019-01-17T04:20:16.309Z,80.75
2019-01-17T04:22:45.696Z,81.22
2019-01-17T04:25:14.963Z,81.20
2019-01-17T04:27:44.003Z,80.83
2019-01-17T04:30:16.318Z,81.14
2019-01-17T04:32:45.732Z,81.35
2019-01-17T04:35:14.858Z,81.95
2019-01-17T04:37:43.994Z,82.20
2019-01-17T04:40:13.953Z,82.50
2019-01-17T04:42:43.308Z,82.58
2019-01-17T04:45:14.228Z,82.83
2019-01-17T04:47:43.607Z,83.48
2019-01-17T04:50:13.939Z,84.15
2019-01-17T04:52:43.212Z,84.52
2019-01-17T04:55:13.332Z,84.13
2019-01-17T04:57:43.031Z,84.11
2019-01-17T05:00:17.721Z,84.03
2019-01-17T05:02:46.876Z,83.40
2019-01-17T05:05:16.022Z,83.50
2019-01-17T05:07:45.119Z,82.94
2019-01-17T05:10:14.804Z,83.37
2019-01-17T05:12:44.031Z,83.21
2019-01-17T05:15:13.333Z,83.61
2019-01-17T05:17:42.396Z,81.96
2019-01-17T05:20:14.157Z,81.08
2019-01-17T05:22:43.495Z,80.92
2019-01-17T05:25:13.382Z,81.57
2019-01-17T05:27:42.868Z,80.84
2019-01-17T05:30:14.874Z,80.76
2019-01-17T05:32:44.055Z,81.42
2019-01-17T05:35:14.457Z,81.13
2019-01-17T05:37:43.701Z,80.81
2019-01-17T05:40:17.814Z,80.33
2019-01-17T05:42:47.119Z,80.75
2019-01-17T05:45:18.050Z,81.12
2019-01-17T05:47:47.775Z,80.54
2019-01-17T05:50:18.414Z,81.21
2019-01-17T05:52:47.830Z,81.65
2019-01-17T05:55:20.151Z,82.16
2019-01-17T05:57:48.953Z,81.41
2019-01-17T06:00:21.106Z,81.96
2019-01-17T06:02:50.412Z,81.75
2019-01-17T06:05:20.269Z,81.18
2019-01-17T06:07:49.539Z,81.03
2019-01-17T06:10:18.658Z,81.12
2019-01-17T06:12:47.757Z,81.96
2019-01-17T06:15:19.919Z,83.04
2019-01-17T06:17:49.239Z,83.77
2019-01-17T06:20:20.688Z,84.17
2019-01-17T06:22:50.172Z,83.64
2019-01-17T06:25:19.243Z,83.21
2019-01-17T06:27:48.677Z,83.67
2019-01-17T06:30:19.634Z,83.96
2019-01-17T06:32:48.900Z,82.46
2019-01-17T06:35:18.373Z,82.73
2019-01-17T06:37:47.574Z,82.45
2019-01-17T06:40:31.444Z,83.49
2019-01-17T06:43:00.856Z,84.26
2019-01-17T06:45:29.977Z,87.12
2019-01-17T06:47:59.168Z,87.54
2019-01-17T06:50:28.223Z,87.60
2019-01-17T06:52:57.555Z,85.43
2019-01-17T06:55:26.619Z,85.50
2019-01-17T06:57:55.741Z,85.32
2019-01-17T07:00:25.241Z,85.23
2019-01-17T07:02:54.627Z,85.18
2019-01-17T07:05:24.526Z,85.40
2019-01-17T07:07:53.679Z,86.66
2019-01-17T07:10:23.003Z,86.59
2019-01-17T07:12:52.255Z,88.39
2019-01-17T07:15:21.573Z,89.09
2019-01-17T07:17:50.791Z,89.15
2019-01-17T07:20:20.466Z,88.75
2019-01-17T07:22:49.970Z,88.96
2019-01-17T07:25:21.473Z,89.66
2019-01-17T07:27:50.535Z,89.29
2019-01-17T07:30:22.515Z,90.02
2019-01-17T07:32:51.584Z,89.46
2019-01-17T07:35:21.383Z,89.84
2019-01-17T07:37:51.115Z,89.87
2019-01-17T07:40:20.387Z,90.44
2019-01-17T07:42:49.820Z,90.78
2019-01-17T07:45:22.029Z,90.48
2019-01-17T07:47:51.249Z,90.39
2019-01-17T07:50:20.370Z,90.78
2019-01-17T07:52:49.493Z,91.43
2019-01-17T07:55:18.584Z,92.19
2019-01-17T07:57:47.975Z,93.13
2019-01-17T08:00:19.393Z,93.96
2019-01-17T08:02:48.479Z,93.97
2019-01-17T08:05:17.657Z,94.60
2019-01-17T08:07:47.065Z,95.29
2019-01-17T08:10:17.757Z,96.11
2019-01-17T08:12:47.566Z,96.12
2019-01-17T08:15:17.496Z,96.45
2019-01-17T08:17:46.709Z,95.86
2019-01-17T08:20:21.454Z,95.31
2019-01-17T08:22:50.666Z,96.03
2019-01-17T08:25:20.960Z,95.23
2019-01-17T08:27:50.370Z,94.61
2019-01-17T08:30:22.194Z,94.64
2019-01-17T08:32:51.500Z,94.33
2019-01-17T08:35:21.267Z,93.29
2019-01-17T08:37:50.412Z,92.22
2019-01-17T08:40:23.135Z,92.48
2019-01-17T08:42:52.375Z,92.32
2019-01-17T08:45:21.481Z,91.90
2019-01-17T08:47:50.699Z,92.02
2019-01-17T08:50:19.913Z,91.15
2019-01-17T08:52:49.144Z,90.63
2019-01-17T08:55:18.401Z,90.78
2019-01-17T08:57:47.932Z,91.17
2019-01-17T09:00:18.871Z,90.97
2019-01-17T09:02:48.100Z,89.90
2019-01-17T09:05:17.216Z,89.79
2019-01-17T09:07:46.640Z,89.76
2019-01-17T09:10:18.937Z,89.71
2019-01-17T09:12:49.866Z,89.54
2019-01-17T09:15:20.833Z,89.95
2019-01-17T09:17:50.267Z,89.89
2019-01-17T09:20:19.340Z,89.89
2019-01-17T09:22:48.683Z,88.87
2019-01-17T09:25:18.127Z,89.64
2019-01-17T09:27:47.321Z,88.61
2019-01-17T09:30:17.990Z,87.93
2019-01-17T09:32:47.454Z,88.14
2019-01-17T09:35:17.194Z,87.27
2019-01-17T09:37:46.265Z,87.59
2019-01-17T09:40:17.285Z,87.92
2019-01-17T09:42:46.397Z,88.38
2019-01-17T09:45:15.659Z,88.20
2019-01-17T09:47:45.698Z,88.35
2019-01-17T09:50:17.242Z,88.49
2019-01-17T09:52:46.457Z,89.11
2019-01-17T09:55:15.481Z,89.38
2019-01-17T09:57:44.637Z,89.99
2019-01-17T10:00:31.226Z,90.21
2019-01-17T10:03:00.617Z,90.20
2019-01-17T10:05:30.581Z,90.52
2019-01-17T10:07:59.961Z,91.09
2019-01-17T10:10:29.281Z,91.78
2019-01-17T10:12:58.523Z,91.62
2019-01-17T10:15:43.550Z,91.18
2019-01-17T10:18:51.369Z,90.84
2019-01-17T10:21:59.156Z,92.11
2019-01-17T10:24:59.162Z,93.11
2019-01-17T10:27:58.963Z,94.62
2019-01-17T10:30:58.287Z,94.85
2019-01-17T10:33:57.782Z,93.86
2019-01-17T10:37:26.219Z,93.53
2019-01-17T10:40:35.461Z,95.14
2019-01-17T10:43:18.322Z,95.50
2019-01-17T10:46:00.077Z,95.15
2019-01-17T10:49:07.684Z,94.76
2019-01-17T10:52:26.576Z,94.30
2019-01-17T10:55:49.798Z,94.19
2019-01-17T10:58:40.806Z,94.73
2019-01-17T11:01:41.318Z,93.98
2019-01-17T11:04:18.795Z,93.14
2019-01-17T11:07:21.773Z,92.92
2019-01-17T11:10:02.790Z,92.96
2019-01-17T11:12:57.807Z,92.74
2019-01-17T11:16:02.795Z,89.06
2019-01-17T11:19:27.918Z,89.00
2019-01-17T11:22:28.096Z,89.44
2019-01-17T11:25:29.350Z,88.50
2019-01-17T11:28:25.953Z,86.22
2019-01-17T11:31:34.396Z,84.76
2019-01-17T11:34:26.723Z,85.13
2019-01-17T11:37:34.395Z,83.79
2019-01-17T11:40:48.423Z,83.76
2019-01-17T11:43:52.490Z,82.60
2019-01-17T11:46:45.057Z,83.16
2019-01-17T11:49:55.296Z,83.37
2019-01-17T11:52:52.539Z,82.40
2019-01-17T11:56:00.977Z,82.76
2019-01-17T11:58:59.796Z,81.93
2019-01-17T12:01:51.980Z,83.08
2019-01-17T12:04:36.308Z,82.81
2019-01-17T12:07:17.645Z,83.11
2019-01-17T12:09:46.910Z,82.95
2019-01-17T12:12:24.014Z,83.53
2019-01-17T12:14:55.568Z,83.34
2019-01-17T12:17:25.861Z,83.37
2019-01-17T12:19:55.159Z,82.99
2019-01-17T12:22:24.854Z,82.58
2019-01-17T12:24:53.934Z,81.25
2019-01-17T12:27:24.557Z,82.47
2019-01-17T12:29:54.735Z,83.85
2019-01-17T12:32:24.872Z,86.22
2019-01-17T12:34:53.949Z,86.92
2019-01-17T12:37:23.118Z,87.60
2019-01-17T12:39:52.177Z,86.95
2019-01-17T12:42:21.587Z,84.67
2019-01-17T12:44:50.801Z,83.33
2019-01-17T12:47:20.455Z,83.77
2019-01-17T12:49:49.658Z,83.09
2019-01-17T12:52:18.961Z,82.05
2019-01-17T12:54:48.171Z,80.57
2019-01-17T12:57:17.431Z,80.35
2019-01-17T12:59:46.552Z,80.74
2019-01-17T13:02:15.762Z,81.02
2019-01-17T13:04:44.951Z,80.02
2019-01-17T13:07:14.635Z,80.71
2019-01-17T13:09:45.214Z,80.18
2019-01-17T13:12:14.303Z,79.54
2019-01-17T13:14:43.425Z,81.04
2019-01-17T13:17:13.000Z,82.86
2019-01-17T13:19:42.251Z,86.12
2019-01-17T13:22:12.588Z,87.54
2019-01-17T13:24:42.100Z,89.78
2019-01-17T13:27:11.386Z,90.46
2019-01-17T13:29:40.642Z,90.65
2019-01-17T13:32:10.086Z,89.94
2019-01-17T13:34:39.210Z,89.33
2019-01-17T13:37:08.356Z,89.39
2019-01-17T13:39:37.596Z,88.08
2019-01-17T13:42:06.911Z,86.77
2019-01-17T13:44:36.125Z,87.08
2019-01-17T13:47:05.307Z,85.59
2019-01-17T13:49:34.559Z,84.76
2019-01-17T13:52:07.643Z,84.41
2019-01-17T13:54:36.815Z,83.59
2019-01-17T13:57:07.926Z,82.90
2019-01-17T13:59:37.311Z,81.01
2019-01-17T14:02:08.204Z,80.20
2019-01-17T14:04:37.524Z,80.47
2019-01-17T14:07:06.686Z,80.27
2019-01-17T14:09:36.029Z,78.89
2019-01-17T14:12:06.022Z,79.11
2019-01-17T14:14:35.499Z,79.07
2019-01-17T14:17:04.849Z,78.92
2019-01-17T14:19:33.961Z,78.97
2019-01-17T14:22:03.718Z,79.11
2019-01-17T14:24:32.829Z,79.58
2019-01-17T14:27:03.444Z,80.82
2019-01-17T14:29:32.752Z,80.50
2019-01-17T14:32:02.254Z,80.15
2019-01-17T14:34:31.386Z,80.64
2019-01-17T14:37:00.609Z,80.61
2019-01-17T14:39:30.082Z,81.69
2019-01-17T14:41:59.392Z,82.08
2019-01-17T14:44:28.538Z,83.21
2019-01-17T14:46:58.174Z,82.57
2019-01-17T14:49:27.376Z,82.62
2019-01-17T14:51:56.778Z,83.97
2019-01-17T14:54:26.369Z,84.01
2019-01-17T14:56:55.728Z,84.30
2019-01-17T14:59:25.196Z,84.68
2019-01-17T15:01:55.763Z,82.94
2019-01-17T15:04:29.977Z,81.72
2019-01-17T15:06:59.063Z,81.60
2019-01-17T15:09:28.850Z,81.91
2019-01-17T15:11:58.383Z,81.11
2019-01-17T15:14:27.589Z,80.31
2019-01-17T15:16:57.018Z,79.98
2019-01-17T15:19:26.176Z,79.30
2019-01-17T15:21:55.417Z,79.29
2019-01-17T15:24:24.634Z,79.20
2019-01-17T15:26:53.981Z,78.58
2019-01-17T15:29:23.186Z,78.23
2019-01-17T15:31:53.062Z,78.46
2019-01-17T15:34:22.369Z,78.51
2019-01-17T15:36:51.547Z,85.20
2019-01-17T15:39:20.986Z,88.48
2019-01-17T15:41:50.256Z,88.73
2019-01-17T15:44:19.359Z,88.87
2019-01-17T15:46:48.690Z,87.32
2019-01-17T15:49:17.967Z,86.29
2019-01-17T15:51:47.814Z,84.33
2019-01-17T15:54:17.976Z,84.71
2019-01-17T15:56:47.768Z,83.98
2019-01-17T15:59:23.114Z,83.52
2019-01-17T16:01:50.711Z,81.94
2019-01-17T16:04:19.856Z,82.29
2019-01-17T16:06:49.238Z,81.23
2019-01-17T16:09:18.463Z,80.89
2019-01-17T16:11:47.860Z,80.37
2019-01-17T16:14:17.443Z,80.54
2019-01-17T16:16:48.363Z,82.06
2019-01-17T16:19:18.008Z,82.01
2019-01-17T16:21:47.153Z,82.97
2019-01-17T16:24:16.495Z,84.14
2019-01-17T16:26:45.585Z,87.10
2019-01-17T16:29:14.769Z,88.26
2019-01-17T16:31:44.089Z,87.39
2019-01-17T16:34:13.213Z,88.28
2019-01-17T16:36:42.702Z,88.28
2019-01-17T16:39:11.872Z,88.37
2019-01-17T16:41:40.949Z,88.84
2019-01-17T16:44:10.168Z,89.02
2019-01-17T16:46:39.379Z,88.98
2019-01-17T16:49:08.723Z,90.12
2019-01-17T16:51:37.838Z,90.55
2019-01-17T16:54:07.443Z,90.24
2019-01-17T16:56:36.632Z,90.75
2019-01-17T16:59:06.065Z,90.47
2019-01-17T17:01:35.207Z,89.47
2019-01-17T17:04:04.698Z,89.99
2019-01-17T17:06:34.183Z,89.57
2019-01-17T17:09:03.758Z,89.49
2019-01-17T17:11:33.449Z,90.13
2019-01-17T17:14:02.799Z,89.88
2019-01-17T17:16:31.962Z,90.12
2019-01-17T17:19:01.286Z,90.38
2019-01-17T17:21:30.539Z,90.54
2019-01-17T17:23:59.735Z,90.18
2019-01-17T17:26:28.938Z,90.13
2019-01-17T17:28:58.130Z,90.58
2019-01-17T17:31:27.670Z,89.87
2019-01-17T17:33:57.449Z,88.99
2019-01-17T17:36:26.777Z,89.25
2019-01-17T17:38:55.967Z,89.43
2019-01-17T17:41:25.179Z,89.74
2019-01-17T17:43:54.470Z,89.21
2019-01-17T17:46:23.538Z,89.27
2019-01-17T17:48:52.778Z,89.15
2019-01-17T17:51:22.056Z,89.90
2019-01-17T17:53:51.302Z,89.81
2019-01-17T17:56:20.543Z,90.35
2019-01-17T17:58:49.628Z,90.35
2019-01-17T18:01:27.015Z,90.69
2019-01-17T18:03:56.221Z,90.63
2019-01-17T18:06:25.428Z,90.43
2019-01-17T18:08:54.527Z,90.68
2019-01-17T18:11:23.832Z,90.60
2019-01-17T18:13:52.857Z,90.48
2019-01-17T18:16:22.083Z,90.17
2019-01-17T18:18:51.303Z,90.65
2019-01-17T18:21:20.601Z,90.54
2019-01-17T18:23:49.728Z,90.53
2019-01-17T18:26:19.468Z,90.53
2019-01-17T18:28:48.640Z,90.87
2019-01-17T18:31:17.889Z,90.62
2019-01-17T18:33:47.158Z,90.72
2019-01-17T18:36:16.246Z,90.13
2019-01-17T18:38:45.386Z,90.13
2019-01-17T18:41:14.677Z,91.83
2019-01-17T18:43:43.869Z,89.81
2019-01-17T18:46:12.965Z,88.74
2019-01-17T18:48:42.061Z,86.93
2019-01-17T18:51:11.312Z,87.04
2019-01-17T18:53:40.487Z,87.85
2019-01-17T18:56:09.782Z,87.92
2019-01-17T18:58:39.041Z,88.13
2019-01-17T19:01:08.255Z,89.37
2019-01-17T19:03:37.581Z,88.77
2019-01-17T19:06:07.354Z,88.97
2019-01-17T19:08:36.807Z,89.12
2019-01-17T19:11:06.541Z,89.69
2019-01-17T19:13:36.088Z,89.69
2019-01-17T19:16:05.476Z,90.94
2019-01-17T19:18:34.596Z,92.59
2019-01-17T19:21:03.890Z,93.73
2019-01-17T19:23:33.134Z,93.91
2019-01-17T19:26:02.375Z,93.26
2019-01-17T19:28:31.514Z,94.11
2019-01-17T19:31:02.560Z,93.81
2019-01-17T19:33:32.149Z,94.05
2019-01-17T19:36:01.618Z,92.00
2019-01-17T19:38:30.720Z,92.49
2019-01-17T19:40:59.936Z,92.49
2019-01-17T19:43:30.654Z,92.20
2019-01-17T19:46:00.539Z,91.74
2019-01-17T19:48:30.099Z,92.25
2019-01-17T19:51:00.638Z,92.20
2019-01-17T19:53:31.539Z,91.95
2019-01-17T19:56:00.784Z,91.60
2019-01-17T19:58:30.152Z,91.71
2019-01-17T20:00:59.454Z,91.64
2019-01-17T20:03:28.618Z,92.02
2019-01-17T20:05:58.031Z,92.02
2019-01-17T20:08:27.178Z,92.26
2019-01-17T20:10:56.367Z,92.74
2019-01-17T20:13:25.591Z,92.81
2019-01-17T20:15:55.228Z,92.60
2019-01-17T20:18:24.457Z,92.65
2019-01-17T20:20:53.890Z,92.49
2019-01-17T20:23:23.236Z,92.71
2019-01-17T20:25:52.663Z,92.22
2019-01-17T20:28:21.761Z,92.55
2019-01-17T20:30:52.995Z,92.55
2019-01-17T20:33:22.306Z,92.67
2019-01-17T20:35:51.766Z,92.60
2019-01-17T20:38:21.530Z,92.25
2019-01-17T20:40:58.024Z,92.78
2019-01-17T20:43:23.194Z,93.04
2019-01-17T20:45:52.574Z,92.84
2019-01-17T20:48:22.840Z,93.38
2019-01-17T20:50:52.264Z,93.52
2019-01-17T20:53:21.920Z,92.93
2019-01-17T20:55:52.086Z,92.93
2019-01-17T20:58:21.329Z,92.56
2019-01-17T21:01:42.261Z,93.18
2019-01-17T21:04:11.441Z,92.69
2019-01-17T21:06:40.612Z,93.62
2019-01-17T21:09:11.592Z,93.62
2019-01-17T21:11:41.319Z,94.17
2019-01-17T21:14:13.727Z,93.36
2019-01-17T21:16:43.175Z,93.88
2019-01-17T21:19:12.378Z,93.58
2019-01-17T21:21:41.725Z,93.15
2019-01-17T21:24:10.882Z,92.48
2019-01-17T21:26:40.255Z,92.78
2019-01-17T21:29:09.558Z,92.19
2019-01-17T21:31:38.798Z,92.49
2019-01-17T21:34:08.418Z,92.49
2019-01-17T21:36:38.091Z,92.65
2019-01-17T21:39:08.851Z,92.60
2019-01-17T21:41:38.419Z,92.71
2019-01-17T21:44:07.583Z,92.71
2019-01-17T21:46:36.700Z,92.61
2019-01-17T21:49:05.882Z,92.77
2019-01-17T21:51:37.190Z,93.27
2019-01-17T21:54:06.756Z,93.27
2019-01-17T21:56:36.541Z,93.40
2019-01-17T21:59:05.779Z,93.05
2019-01-17T22:01:35.088Z,92.70
2019-01-17T22:04:04.236Z,92.32
2019-01-17T22:06:33.758Z,92.32
2019-01-17T22:09:04.649Z,92.07
2019-01-17T22:11:34.133Z,92.47
2019-01-17T22:14:03.258Z,93.52
2019-01-17T22:16:33.519Z,94.49
2019-01-17T22:19:02.675Z,94.49
2019-01-17T22:21:32.063Z,94.60
2019-01-17T22:24:01.575Z,95.11
2019-01-17T22:26:31.470Z,95.37
2019-01-17T22:29:02.569Z,95.46
2019-01-17T22:31:32.432Z,95.27
2019-01-17T22:34:02.061Z,95.27
2019-01-17T22:36:31.387Z,96.02
2019-01-17T22:39:00.951Z,95.65
2019-01-17T22:41:30.332Z,95.65
2019-01-17T22:43:59.728Z,95.72
2019-01-17T22:46:29.076Z,94.59
2019-01-17T22:49:22.283Z,95.33
2019-01-17T22:51:51.772Z,94.80
2019-01-17T22:54:20.899Z,94.73
2019-01-17T22:56:52.096Z,94.73
2019-01-17T22:59:21.189Z,94.10
2019-01-17T23:01:50.774Z,93.21
2019-01-17T23:04:19.946Z,93.21
2019-01-17T23:06:49.219Z,92.67
2019-01-17T23:09:18.395Z,92.13
2019-01-17T23:11:47.561Z,92.27
2019-01-17T23:14:16.698Z,92.27
2019-01-17T23:16:45.787Z,91.47
2019-01-17T23:19:15.023Z,91.47
2019-01-17T23:21:44.513Z,90.94
2019-01-17T23:24:13.985Z,90.94
2019-01-17T23:26:43.185Z,90.29
2019-01-17T23:29:16.111Z,89.94
2019-01-17T23:31:43.958Z,89.74
2019-01-17T23:34:13.455Z,89.74
2019-01-17T23:36:42.762Z,90.12
2019-01-17T23:39:12.135Z,89.16
2019-01-17T23:41:41.905Z,89.16
2019-01-17T23:44:11.088Z,89.33
2019-01-17T23:46:40.381Z,89.19
2019-01-17T23:49:09.509Z,89.21
2019-01-17T23:51:38.718Z,87.91
2019-01-17T23:54:08.099Z,87.78
2019-01-17T23:56:37.467Z,87.78
2019-01-17T23:59:06.676Z,88.15
